sensor_id;sensor_type;location;lat;lon;timestamp;temperature;humidity
52267;DHT22;38223;50.940;4.034;2023-06-22T00:01:02;21.80;99.90
52267;DHT22;38223;50.940;4.034;2023-06-22T00:03:32;21.80;99.90
52267;DHT22;38223;50.940;4.034;2023-06-22T00:06:07;21.70;99.90
52267;DHT22;38223;50.940;4.034;2023-06-22T00:08:36;21.60;99.90
52267;DHT22;38223;50.940;4.034;2023-06-22T00:11:07;21.50;99.90
52267;DHT22;38223;50.940;4.034;2023-06-22T00:13:43;21.60;99.90
52267;DHT22;38223;50.940;4.034;2023-06-22T00:16:12;21.50;99.90
52267;DHT22;38223;50.940;4.034;2023-06-22T00:18:42;21.40;99.90
52267;DHT22;38223;50.940;4.034;2023-06-22T00:21:14;21.50;99.90
52267;DHT22;38223;50.940;4.034;2023-06-22T00:23:50;21.40;99.90
52267;DHT22;38223;50.940;4.034;2023-06-22T00:26:26;21.40;99.90
52267;DHT22;38223;50.940;4.034;2023-06-22T00:28:56;21.40;99.90
52267;DHT22;38223;50.940;4.034;2023-06-22T00:31:31;21.40;99.90
52267;DHT22;38223;50.940;4.034;2023-06-22T00:34:00;21.40;99.90
52267;DHT22;38223;50.940;4.034;2023-06-22T00:36:50;21.30;99.90
52267;DHT22;38223;50.940;4.034;2023-06-22T00:39:21;21.30;99.90
52267;DHT22;38223;50.940;4.034;2023-06-22T00:41:55;21.20;99.90
52267;DHT22;38223;50.940;4.034;2023-06-22T00:44:27;21.20;99.90
52267;DHT22;38223;50.940;4.034;2023-06-22T00:46:55;21.20;99.90
52267;DHT22;38223;50.940;4.034;2023-06-22T00:49:27;21.30;99.90
52267;DHT22;38223;50.940;4.034;2023-06-22T00:51:59;21.20;99.90
52267;DHT22;38223;50.940;4.034;2023-06-22T00:54:33;21.50;99.90
52267;DHT22;38223;50.940;4.034;2023-06-22T00:57:03;21.70;99.90
52267;DHT22;38223;50.940;4.034;2023-06-22T00:59:35;21.60;99.90
52267;DHT22;38223;50.940;4.034;2023-06-22T01:02:10;21.40;99.90
52267;DHT22;38223;50.940;4.034;2023-06-22T01:04:43;21.30;99.90
52267;DHT22;38223;50.940;4.034;2023-06-22T01:07:32;21.20;99.90
52267;DHT22;38223;50.940;4.034;2023-06-22T01:10:19;21.20;99.90
52267;DHT22;38223;50.940;4.034;2023-06-22T01:12:49;21.20;99.90
52267;DHT22;38223;50.940;4.034;2023-06-22T01:15:27;21.00;99.90
52267;DHT22;38223;50.940;4.034;2023-06-22T01:17:58;21.00;99.90
52267;DHT22;38223;50.940;4.034;2023-06-22T01:29:25;20.70;99.90
52267;DHT22;38223;50.940;4.034;2023-06-22T01:31:59;20.80;99.90
52267;DHT22;38223;50.940;4.034;2023-06-22T01:34:30;20.80;99.90
52267;DHT22;38223;50.940;4.034;2023-06-22T01:37:05;20.80;99.90
52267;DHT22;38223;50.940;4.034;2023-06-22T01:39:40;20.70;99.90
52267;DHT22;38223;50.940;4.034;2023-06-22T01:42:13;20.70;99.90
52267;DHT22;38223;50.940;4.034;2023-06-22T01:44:54;20.60;99.90
52267;DHT22;38223;50.940;4.034;2023-06-22T01:47:24;20.60;99.90
52267;DHT22;38223;50.940;4.034;2023-06-22T01:49:59;20.60;99.90
52267;DHT22;38223;50.940;4.034;2023-06-22T01:52:39;20.50;99.90
52267;DHT22;38223;50.940;4.034;2023-06-22T01:55:11;20.60;99.90
52267;DHT22;38223;50.940;4.034;2023-06-22T01:57:44;20.60;99.90
52267;DHT22;38223;50.940;4.034;2023-06-22T02:00:21;20.70;99.90
52267;DHT22;38223;50.940;4.034;2023-06-22T02:03:03;20.70;99.90
52267;DHT22;38223;50.940;4.034;2023-06-22T02:05:37;20.70;99.90
52267;DHT22;38223;50.940;4.034;2023-06-22T02:08:20;20.60;99.90
52267;DHT22;38223;50.940;4.034;2023-06-22T02:10:49;20.60;99.90
52267;DHT22;38223;50.940;4.034;2023-06-22T02:13:27;20.70;99.90
52267;DHT22;38223;50.940;4.034;2023-06-22T02:15:59;20.80;99.90
52267;DHT22;38223;50.940;4.034;2023-06-22T02:18:37;20.80;99.90
52267;DHT22;38223;50.940;4.034;2023-06-22T02:21:12;20.70;99.90
52267;DHT22;38223;50.940;4.034;2023-06-22T02:23:47;20.60;99.90
52267;DHT22;38223;50.940;4.034;2023-06-22T02:26:17;20.40;99.90
52267;DHT22;38223;50.940;4.034;2023-06-22T02:28:53;20.40;99.90
52267;DHT22;38223;50.940;4.034;2023-06-22T02:31:26;20.30;99.90
52267;DHT22;38223;50.940;4.034;2023-06-22T02:34:03;20.30;99.90
52267;DHT22;38223;50.940;4.034;2023-06-22T02:36:35;20.20;99.90
52267;DHT22;38223;50.940;4.034;2023-06-22T02:39:11;20.20;99.90
52267;DHT22;38223;50.940;4.034;2023-06-22T02:41:44;20.30;99.90
52267;DHT22;38223;50.940;4.034;2023-06-22T02:44:19;20.30;99.90
52267;DHT22;38223;50.940;4.034;2023-06-22T02:46:53;20.30;99.90
52267;DHT22;38223;50.940;4.034;2023-06-22T02:49:25;20.50;99.90
52267;DHT22;38223;50.940;4.034;2023-06-22T02:51:59;20.50;99.90
52267;DHT22;38223;50.940;4.034;2023-06-22T02:54:34;20.70;99.90
52267;DHT22;38223;50.940;4.034;2023-06-22T02:57:05;20.40;99.90
52267;DHT22;38223;50.940;4.034;2023-06-22T02:59:39;20.30;99.90
52267;DHT22;38223;50.940;4.034;2023-06-22T03:02:16;20.30;99.90
52267;DHT22;38223;50.940;4.034;2023-06-22T03:04:51;20.30;99.90
52267;DHT22;38223;50.940;4.034;2023-06-22T03:07:26;20.10;99.90
52267;DHT22;38223;50.940;4.034;2023-06-22T03:10:00;20.10;99.90
52267;DHT22;38223;50.940;4.034;2023-06-22T03:12:45;20.00;99.90
52267;DHT22;38223;50.940;4.034;2023-06-22T03:15:27;19.90;99.90
52267;DHT22;38223;50.940;4.034;2023-06-22T03:18:06;20.20;99.90
52267;DHT22;38223;50.940;4.034;2023-06-22T03:20:40;20.40;99.90
52267;DHT22;38223;50.940;4.034;2023-06-22T03:23:17;20.30;99.90
52267;DHT22;38223;50.940;4.034;2023-06-22T03:25:54;20.30;99.90
52267;DHT22;38223;50.940;4.034;2023-06-22T03:28:28;20.20;99.90
52267;DHT22;38223;50.940;4.034;2023-06-22T03:31:02;20.10;99.90
52267;DHT22;38223;50.940;4.034;2023-06-22T03:33:37;19.90;99.90
52267;DHT22;38223;50.940;4.034;2023-06-22T03:36:10;20.00;99.90
52267;DHT22;38223;50.940;4.034;2023-06-22T03:38:48;20.10;99.90
52267;DHT22;38223;50.940;4.034;2023-06-22T03:41:22;20.00;99.90
52267;DHT22;38223;50.940;4.034;2023-06-22T03:43:52;20.00;99.90
52267;DHT22;38223;50.940;4.034;2023-06-22T03:46:24;20.00;99.90
52267;DHT22;38223;50.940;4.034;2023-06-22T03:49:01;19.90;99.90
52267;DHT22;38223;50.940;4.034;2023-06-22T03:51:38;19.90;99.90
52267;DHT22;38223;50.940;4.034;2023-06-22T03:54:13;19.90;99.90
52267;DHT22;38223;50.940;4.034;2023-06-22T03:56:59;20.00;99.90
52267;DHT22;38223;50.940;4.034;2023-06-22T03:59:35;20.00;99.90
52267;DHT22;38223;50.940;4.034;2023-06-22T04:02:15;20.00;99.90
52267;DHT22;38223;50.940;4.034;2023-06-22T04:04:52;19.80;99.90
52267;DHT22;38223;50.940;4.034;2023-06-22T04:07:25;19.60;99.90
52267;DHT22;38223;50.940;4.034;2023-06-22T04:09:58;19.70;99.90
52267;DHT22;38223;50.940;4.034;2023-06-22T04:12:32;19.70;99.90
52267;DHT22;38223;50.940;4.034;2023-06-22T04:15:06;19.80;99.90
52267;DHT22;38223;50.940;4.034;2023-06-22T04:17:41;19.80;99.90
52267;DHT22;38223;50.940;4.034;2023-06-22T04:20:16;19.80;99.90
52267;DHT22;38223;50.940;4.034;2023-06-22T04:22:57;19.80;99.90
52267;DHT22;38223;50.940;4.034;2023-06-22T04:25:30;19.90;99.90
52267;DHT22;38223;50.940;4.034;2023-06-22T04:28:08;20.00;99.90
52267;DHT22;38223;50.940;4.034;2023-06-22T04:30:41;20.00;99.90
52267;DHT22;38223;50.940;4.034;2023-06-22T04:33:18;20.00;99.90
52267;DHT22;38223;50.940;4.034;2023-06-22T04:35:52;20.00;99.90
52267;DHT22;38223;50.940;4.034;2023-06-22T04:38:39;19.90;99.90
52267;DHT22;38223;50.940;4.034;2023-06-22T04:41:14;20.00;99.90
52267;DHT22;38223;50.940;4.034;2023-06-22T04:43:51;20.10;99.90
52267;DHT22;38223;50.940;4.034;2023-06-22T04:46:28;20.00;99.90
52267;DHT22;38223;50.940;4.034;2023-06-22T04:49:02;20.00;99.90
52267;DHT22;38223;50.940;4.034;2023-06-22T04:51:45;20.00;99.90
52267;DHT22;38223;50.940;4.034;2023-06-22T04:54:19;20.00;99.90
52267;DHT22;38223;50.940;4.034;2023-06-22T04:56:58;20.10;99.90
52267;DHT22;38223;50.940;4.034;2023-06-22T04:59:31;20.20;99.90
52267;DHT22;38223;50.940;4.034;2023-06-22T05:02:06;20.20;99.90
52267;DHT22;38223;50.940;4.034;2023-06-22T05:04:39;20.20;99.90
52267;DHT22;38223;50.940;4.034;2023-06-22T05:07:13;20.30;99.90
52267;DHT22;38223;50.940;4.034;2023-06-22T05:09:46;20.30;99.90
52267;DHT22;38223;50.940;4.034;2023-06-22T05:12:22;20.30;99.90
52267;DHT22;38223;50.940;4.034;2023-06-22T05:14:55;20.40;99.90
52267;DHT22;38223;50.940;4.034;2023-06-22T05:17:29;20.50;99.90
52267;DHT22;38223;50.940;4.034;2023-06-22T05:19:58;20.60;99.90
52267;DHT22;38223;50.940;4.034;2023-06-22T05:22:31;20.70;99.90
52267;DHT22;38223;50.940;4.034;2023-06-22T05:25:02;20.80;99.90
52267;DHT22;38223;50.940;4.034;2023-06-22T05:27:36;20.80;99.90
52267;DHT22;38223;50.940;4.034;2023-06-22T05:30:13;20.60;99.90
52267;DHT22;38223;50.940;4.034;2023-06-22T05:32:43;20.60;99.90
52267;DHT22;38223;50.940;4.034;2023-06-22T05:35:15;20.60;99.90
52267;DHT22;38223;50.940;4.034;2023-06-22T05:37:46;20.70;99.90
52267;DHT22;38223;50.940;4.034;2023-06-22T05:40:18;20.60;99.90
52267;DHT22;38223;50.940;4.034;2023-06-22T05:42:53;20.50;99.90
52267;DHT22;38223;50.940;4.034;2023-06-22T05:45:34;20.40;99.90
52267;DHT22;38223;50.940;4.034;2023-06-22T05:48:06;20.40;99.90
52267;DHT22;38223;50.940;4.034;2023-06-22T05:50:40;20.50;99.90
52267;DHT22;38223;50.940;4.034;2023-06-22T05:53:14;20.40;99.90
52267;DHT22;38223;50.940;4.034;2023-06-22T05:55:51;20.60;99.90
52267;DHT22;38223;50.940;4.034;2023-06-22T05:58:24;20.50;99.90
52267;DHT22;38223;50.940;4.034;2023-06-22T06:00:57;20.30;99.90
52267;DHT22;38223;50.940;4.034;2023-06-22T06:03:31;20.30;99.90
52267;DHT22;38223;50.940;4.034;2023-06-22T06:06:03;20.30;99.90
52267;DHT22;38223;50.940;4.034;2023-06-22T06:08:41;20.30;99.90
52267;DHT22;38223;50.940;4.034;2023-06-22T06:11:21;20.40;99.90
52267;DHT22;38223;50.940;4.034;2023-06-22T06:13:50;20.40;99.90
52267;DHT22;38223;50.940;4.034;2023-06-22T06:16:19;20.30;99.90
52267;DHT22;38223;50.940;4.034;2023-06-22T06:18:54;20.40;99.90
52267;DHT22;38223;50.940;4.034;2023-06-22T06:21:29;20.40;99.90
52267;DHT22;38223;50.940;4.034;2023-06-22T06:24:00;20.40;99.90
52267;DHT22;38223;50.940;4.034;2023-06-22T06:26:36;20.50;99.90
52267;DHT22;38223;50.940;4.034;2023-06-22T06:29:15;20.50;99.90
52267;DHT22;38223;50.940;4.034;2023-06-22T06:31:48;20.60;99.90
52267;DHT22;38223;50.940;4.034;2023-06-22T06:34:19;20.60;99.90
52267;DHT22;38223;50.940;4.034;2023-06-22T06:36:48;20.50;99.90
52267;DHT22;38223;50.940;4.034;2023-06-22T06:39:19;20.50;99.90
52267;DHT22;38223;50.940;4.034;2023-06-22T06:41:50;20.50;99.90
52267;DHT22;38223;50.940;4.034;2023-06-22T06:44:23;20.40;99.90
52267;DHT22;38223;50.940;4.034;2023-06-22T06:46:54;20.50;99.90
52267;DHT22;38223;50.940;4.034;2023-06-22T06:49:28;20.30;99.90
52267;DHT22;38223;50.940;4.034;2023-06-22T06:52:05;20.20;99.90
52267;DHT22;38223;50.940;4.034;2023-06-22T06:54:36;20.20;99.90
52267;DHT22;38223;50.940;4.034;2023-06-22T06:57:05;20.20;99.90
52267;DHT22;38223;50.940;4.034;2023-06-22T06:59:40;20.20;99.90
52267;DHT22;38223;50.940;4.034;2023-06-22T07:02:16;20.10;99.90
52267;DHT22;38223;50.940;4.034;2023-06-22T07:04:48;20.10;99.90
52267;DHT22;38223;50.940;4.034;2023-06-22T07:07:25;20.00;99.90
52267;DHT22;38223;50.940;4.034;2023-06-22T07:09:54;20.10;99.90
52267;DHT22;38223;50.940;4.034;2023-06-22T07:12:25;20.20;99.90
52267;DHT22;38223;50.940;4.034;2023-06-22T07:15:03;20.20;99.90
52267;DHT22;38223;50.940;4.034;2023-06-22T07:17:32;20.30;99.90
52267;DHT22;38223;50.940;4.034;2023-06-22T07:20:06;20.40;99.90
52267;DHT22;38223;50.940;4.034;2023-06-22T07:22:41;20.30;99.90
52267;DHT22;38223;50.940;4.034;2023-06-22T07:25:14;20.30;99.90
52267;DHT22;38223;50.940;4.034;2023-06-22T07:28:06;20.40;99.90
52267;DHT22;38223;50.940;4.034;2023-06-22T07:30:22;20.40;99.90
52267;DHT22;38223;50.940;4.034;2023-06-22T07:32:53;20.40;99.90
52267;DHT22;38223;50.940;4.034;2023-06-22T07:35:27;20.40;99.90
52267;DHT22;38223;50.940;4.034;2023-06-22T07:37:57;20.30;99.90
52267;DHT22;38223;50.940;4.034;2023-06-22T07:40:28;20.30;99.90
52267;DHT22;38223;50.940;4.034;2023-06-22T07:43:02;20.30;99.90
52267;DHT22;38223;50.940;4.034;2023-06-22T07:45:34;20.30;99.90
52267;DHT22;38223;50.940;4.034;2023-06-22T07:48:04;20.40;99.90
52267;DHT22;38223;50.940;4.034;2023-06-22T07:50:35;20.60;99.90
52267;DHT22;38223;50.940;4.034;2023-06-22T07:53:15;20.70;99.90
52267;DHT22;38223;50.940;4.034;2023-06-22T07:56:02;20.80;99.90
52267;DHT22;38223;50.940;4.034;2023-06-22T07:58:34;20.70;99.90
52267;DHT22;38223;50.940;4.034;2023-06-22T08:01:07;20.80;99.90
52267;DHT22;38223;50.940;4.034;2023-06-22T08:03:35;20.80;99.90
52267;DHT22;38223;50.940;4.034;2023-06-22T08:06:09;20.80;99.90
52267;DHT22;38223;50.940;4.034;2023-06-22T08:08:40;20.80;99.90
52267;DHT22;38223;50.940;4.034;2023-06-22T08:11:13;20.90;99.90
52267;DHT22;38223;50.940;4.034;2023-06-22T08:13:42;21.00;99.90
52267;DHT22;38223;50.940;4.034;2023-06-22T08:16:15;21.10;99.90
52267;DHT22;38223;50.940;4.034;2023-06-22T08:18:46;21.30;99.90
52267;DHT22;38223;50.940;4.034;2023-06-22T08:21:18;21.20;99.90
52267;DHT22;38223;50.940;4.034;2023-06-22T08:23:47;21.30;99.90
52267;DHT22;38223;50.940;4.034;2023-06-22T08:26:16;21.30;99.90
52267;DHT22;38223;50.940;4.034;2023-06-22T08:28:51;21.30;99.90
52267;DHT22;38223;50.940;4.034;2023-06-22T08:31:24;21.30;99.90
52267;DHT22;38223;50.940;4.034;2023-06-22T08:33:56;21.40;99.90
52267;DHT22;38223;50.940;4.034;2023-06-22T08:36:25;21.40;99.90
52267;DHT22;38223;50.940;4.034;2023-06-22T08:38:54;21.40;99.90
52267;DHT22;38223;50.940;4.034;2023-06-22T08:41:25;21.40;99.90
52267;DHT22;38223;50.940;4.034;2023-06-22T08:43:58;21.30;99.90
52267;DHT22;38223;50.940;4.034;2023-06-22T08:46:33;21.30;99.90
52267;DHT22;38223;50.940;4.034;2023-06-22T08:49:02;21.30;99.90
52267;DHT22;38223;50.940;4.034;2023-06-22T08:51:32;21.30;99.90
52267;DHT22;38223;50.940;4.034;2023-06-22T08:54:01;21.40;99.90
52267;DHT22;38223;50.940;4.034;2023-06-22T08:56:33;21.40;99.90
52267;DHT22;38223;50.940;4.034;2023-06-22T08:59:09;21.50;99.90
52267;DHT22;38223;50.940;4.034;2023-06-22T09:01:39;21.40;99.90
52267;DHT22;38223;50.940;4.034;2023-06-22T09:04:10;21.40;99.90
52267;DHT22;38223;50.940;4.034;2023-06-22T09:06:41;21.50;99.90
52267;DHT22;38223;50.940;4.034;2023-06-22T09:09:17;21.80;99.90
52267;DHT22;38223;50.940;4.034;2023-06-22T09:11:50;21.90;99.90
52267;DHT22;38223;50.940;4.034;2023-06-22T09:14:19;22.00;99.90
52267;DHT22;38223;50.940;4.034;2023-06-22T09:17:01;22.10;99.90
52267;DHT22;38223;50.940;4.034;2023-06-22T09:19:38;22.30;99.90
52267;DHT22;38223;50.940;4.034;2023-06-22T09:22:10;22.00;99.90
52267;DHT22;38223;50.940;4.034;2023-06-22T09:24:50;21.90;99.90
52267;DHT22;38223;50.940;4.034;2023-06-22T09:27:23;22.00;99.90
52267;DHT22;38223;50.940;4.034;2023-06-22T09:29:54;22.10;99.90
52267;DHT22;38223;50.940;4.034;2023-06-22T09:32:32;22.30;99.90
52267;DHT22;38223;50.940;4.034;2023-06-22T09:35:09;22.60;99.90
52267;DHT22;38223;50.940;4.034;2023-06-22T09:37:41;22.50;99.90
52267;DHT22;38223;50.940;4.034;2023-06-22T09:40:15;22.50;99.90
52267;DHT22;38223;50.940;4.034;2023-06-22T09:42:48;22.30;99.90
52267;DHT22;38223;50.940;4.034;2023-06-22T09:45:16;22.20;99.90
52267;DHT22;38223;50.940;4.034;2023-06-22T09:47:47;22.10;99.90
52267;DHT22;38223;50.940;4.034;2023-06-22T09:50:18;22.20;99.90
52267;DHT22;38223;50.940;4.034;2023-06-22T09:52:50;22.10;99.90
52267;DHT22;38223;50.940;4.034;2023-06-22T09:55:22;22.00;99.90
52267;DHT22;38223;50.940;4.034;2023-06-22T09:57:55;21.80;99.90
52267;DHT22;38223;50.940;4.034;2023-06-22T10:00:24;21.50;99.90
52267;DHT22;38223;50.940;4.034;2023-06-22T10:02:58;21.40;99.90
52267;DHT22;38223;50.940;4.034;2023-06-22T10:05:30;21.40;99.90
52267;DHT22;38223;50.940;4.034;2023-06-22T10:07:59;21.30;99.90
52267;DHT22;38223;50.940;4.034;2023-06-22T10:10:30;21.30;99.90
52267;DHT22;38223;50.940;4.034;2023-06-22T10:13:02;21.30;99.90
52267;DHT22;38223;50.940;4.034;2023-06-22T10:15:29;21.30;99.90
52267;DHT22;38223;50.940;4.034;2023-06-22T10:18:00;21.30;99.90
52267;DHT22;38223;50.940;4.034;2023-06-22T10:20:31;21.30;99.90
52267;DHT22;38223;50.940;4.034;2023-06-22T10:23:00;21.40;99.90
52267;DHT22;38223;50.940;4.034;2023-06-22T10:25:32;21.00;99.90
52267;DHT22;38223;50.940;4.034;2023-06-22T10:28:03;20.70;99.90
52267;DHT22;38223;50.940;4.034;2023-06-22T10:30:36;20.60;99.90
52267;DHT22;38223;50.940;4.034;2023-06-22T10:33:07;20.50;99.90
52267;DHT22;38223;50.940;4.034;2023-06-22T10:35:39;20.40;99.90
52267;DHT22;38223;50.940;4.034;2023-06-22T10:38:13;20.30;99.90
52267;DHT22;38223;50.940;4.034;2023-06-22T10:40:46;20.00;99.90
52267;DHT22;38223;50.940;4.034;2023-06-22T10:43:17;19.80;99.90
52267;DHT22;38223;50.940;4.034;2023-06-22T10:45:49;19.60;99.90
52267;DHT22;38223;50.940;4.034;2023-06-22T10:48:20;19.50;99.90
52267;DHT22;38223;50.940;4.034;2023-06-22T10:50:56;19.50;99.90
52267;DHT22;38223;50.940;4.034;2023-06-22T10:53:25;19.40;99.90
52267;DHT22;38223;50.940;4.034;2023-06-22T10:55:59;19.50;99.90
52267;DHT22;38223;50.940;4.034;2023-06-22T10:58:28;19.50;99.90
52267;DHT22;38223;50.940;4.034;2023-06-22T11:01:01;19.40;99.90
52267;DHT22;38223;50.940;4.034;2023-06-22T11:03:34;19.10;99.90
52267;DHT22;38223;50.940;4.034;2023-06-22T11:06:06;18.90;99.90
52267;DHT22;38223;50.940;4.034;2023-06-22T11:08:38;18.80;99.90
52267;DHT22;38223;50.940;4.034;2023-06-22T11:11:13;18.80;99.90
52267;DHT22;38223;50.940;4.034;2023-06-22T11:13:45;18.80;99.90
52267;DHT22;38223;50.940;4.034;2023-06-22T11:16:30;18.80;99.90
52267;DHT22;38223;50.940;4.034;2023-06-22T11:19:06;18.80;99.90
52267;DHT22;38223;50.940;4.034;2023-06-22T11:21:46;18.70;99.90
52267;DHT22;38223;50.940;4.034;2023-06-22T11:24:19;18.80;99.90
52267;DHT22;38223;50.940;4.034;2023-06-22T11:26:51;18.60;99.90
52267;DHT22;38223;50.940;4.034;2023-06-22T11:29:24;18.60;99.90
52267;DHT22;38223;50.940;4.034;2023-06-22T11:32:04;18.70;99.90
52267;DHT22;38223;50.940;4.034;2023-06-22T11:34:48;18.80;99.90
52267;DHT22;38223;50.940;4.034;2023-06-22T11:37:21;18.80;99.90
52267;DHT22;38223;50.940;4.034;2023-06-22T11:40:06;18.80;99.90
52267;DHT22;38223;50.940;4.034;2023-06-22T11:42:35;18.90;99.90
52267;DHT22;38223;50.940;4.034;2023-06-22T11:45:08;18.80;99.90
52267;DHT22;38223;50.940;4.034;2023-06-22T11:47:53;18.90;99.90
52267;DHT22;38223;50.940;4.034;2023-06-22T11:50:21;18.90;99.90
52267;DHT22;38223;50.940;4.034;2023-06-22T11:52:51;18.80;99.90
52267;DHT22;38223;50.940;4.034;2023-06-22T11:55:22;18.80;99.90
52267;DHT22;38223;50.940;4.034;2023-06-22T11:57:56;18.80;99.90
52267;DHT22;38223;50.940;4.034;2023-06-22T12:00:33;18.80;99.90
52267;DHT22;38223;50.940;4.034;2023-06-22T12:03:05;18.70;99.90
52267;DHT22;38223;50.940;4.034;2023-06-22T12:05:41;18.70;99.90
52267;DHT22;38223;50.940;4.034;2023-06-22T12:08:10;18.80;99.90
52267;DHT22;38223;50.940;4.034;2023-06-22T12:10:40;18.80;99.90
52267;DHT22;38223;50.940;4.034;2023-06-22T12:13:11;18.80;99.90
52267;DHT22;38223;50.940;4.034;2023-06-22T12:18:28;18.60;99.90
52267;DHT22;38223;50.940;4.034;2023-06-22T12:20:57;18.60;99.90
52267;DHT22;38223;50.940;4.034;2023-06-22T12:23:28;18.60;99.90
52267;DHT22;38223;50.940;4.034;2023-06-22T12:26:14;18.70;99.90
52267;DHT22;38223;50.940;4.034;2023-06-22T12:28:44;18.80;99.90
52267;DHT22;38223;50.940;4.034;2023-06-22T12:31:17;18.90;99.90
52267;DHT22;38223;50.940;4.034;2023-06-22T12:33:47;19.00;99.90
52267;DHT22;38223;50.940;4.034;2023-06-22T12:36:19;19.00;99.90
52267;DHT22;38223;50.940;4.034;2023-06-22T12:38:47;19.10;99.90
52267;DHT22;38223;50.940;4.034;2023-06-22T12:41:15;19.20;99.90
52267;DHT22;38223;50.940;4.034;2023-06-22T12:43:42;19.20;99.90
52267;DHT22;38223;50.940;4.034;2023-06-22T12:46:10;19.30;99.90
52267;DHT22;38223;50.940;4.034;2023-06-22T12:48:40;19.30;99.90
52267;DHT22;38223;50.940;4.034;2023-06-22T12:51:19;19.20;99.90
52267;DHT22;38223;50.940;4.034;2023-06-22T12:53:45;19.00;99.90
52267;DHT22;38223;50.940;4.034;2023-06-22T12:56:16;19.00;99.90
52267;DHT22;38223;50.940;4.034;2023-06-22T12:58:46;18.80;99.90
52267;DHT22;38223;50.940;4.034;2023-06-22T13:01:16;18.70;99.90
52267;DHT22;38223;50.940;4.034;2023-06-22T13:03:50;18.70;99.90
52267;DHT22;38223;50.940;4.034;2023-06-22T13:06:24;18.70;99.90
52267;DHT22;38223;50.940;4.034;2023-06-22T13:09:04;18.60;99.90
52267;DHT22;38223;50.940;4.034;2023-06-22T13:11:37;18.70;99.90
52267;DHT22;38223;50.940;4.034;2023-06-22T13:14:16;18.80;99.90
52267;DHT22;38223;50.940;4.034;2023-06-22T13:16:40;18.70;99.90
52267;DHT22;38223;50.940;4.034;2023-06-22T13:19:18;18.50;99.90
52267;DHT22;38223;50.940;4.034;2023-06-22T13:21:47;18.40;99.90
52267;DHT22;38223;50.940;4.034;2023-06-22T13:24:15;18.30;99.90
52267;DHT22;38223;50.940;4.034;2023-06-22T13:26:43;18.30;99.90
52267;DHT22;38223;50.940;4.034;2023-06-22T13:29:13;18.40;99.90
52267;DHT22;38223;50.940;4.034;2023-06-22T13:31:41;18.40;99.90
52267;DHT22;38223;50.940;4.034;2023-06-22T13:34:10;18.30;99.90
52267;DHT22;38223;50.940;4.034;2023-06-22T13:36:42;18.50;99.90
52267;DHT22;38223;50.940;4.034;2023-06-22T13:39:11;18.60;99.90
52267;DHT22;38223;50.940;4.034;2023-06-22T13:41:44;18.50;99.90
52267;DHT22;38223;50.940;4.034;2023-06-22T13:44:16;18.40;99.90
52267;DHT22;38223;50.940;4.034;2023-06-22T13:46:46;18.60;99.90
52267;DHT22;38223;50.940;4.034;2023-06-22T13:49:20;18.50;99.90
52267;DHT22;38223;50.940;4.034;2023-06-22T13:51:54;18.50;99.90
52267;DHT22;38223;50.940;4.034;2023-06-22T13:54:23;18.60;99.90
52267;DHT22;38223;50.940;4.034;2023-06-22T13:56:56;18.80;99.90
52267;DHT22;38223;50.940;4.034;2023-06-22T13:59:25;18.80;99.90
52267;DHT22;38223;50.940;4.034;2023-06-22T14:01:54;18.80;99.90
52267;DHT22;38223;50.940;4.034;2023-06-22T14:04:29;18.90;99.90
52267;DHT22;38223;50.940;4.034;2023-06-22T14:06:59;18.90;99.90
52267;DHT22;38223;50.940;4.034;2023-06-22T14:09:30;19.00;99.90
52267;DHT22;38223;50.940;4.034;2023-06-22T14:12:03;18.90;99.90
52267;DHT22;38223;50.940;4.034;2023-06-22T14:14:32;18.70;99.90
52267;DHT22;38223;50.940;4.034;2023-06-22T14:17:04;18.70;99.90
52267;DHT22;38223;50.940;4.034;2023-06-22T14:19:38;18.70;99.90
52267;DHT22;38223;50.940;4.034;2023-06-22T14:22:10;18.70;99.90
52267;DHT22;38223;50.940;4.034;2023-06-22T14:24:38;18.70;99.90
52267;DHT22;38223;50.940;4.034;2023-06-22T14:27:13;18.70;99.90
52267;DHT22;38223;50.940;4.034;2023-06-22T14:29:40;18.60;99.90
52267;DHT22;38223;50.940;4.034;2023-06-22T14:32:08;18.60;99.90
52267;DHT22;38223;50.940;4.034;2023-06-22T14:34:44;18.70;99.90
52267;DHT22;38223;50.940;4.034;2023-06-22T14:37:26;18.60;99.90
52267;DHT22;38223;50.940;4.034;2023-06-22T14:39:55;18.50;99.90
52267;DHT22;38223;50.940;4.034;2023-06-22T14:42:27;18.70;99.90
52267;DHT22;38223;50.940;4.034;2023-06-22T14:45:04;18.60;99.90
52267;DHT22;38223;50.940;4.034;2023-06-22T14:47:39;18.60;99.90
52267;DHT22;38223;50.940;4.034;2023-06-22T14:50:08;18.50;99.90
52267;DHT22;38223;50.940;4.034;2023-06-22T14:52:42;18.50;99.90
52267;DHT22;38223;50.940;4.034;2023-06-22T14:55:17;18.50;99.90
52267;DHT22;38223;50.940;4.034;2023-06-22T14:57:52;18.50;99.90
52267;DHT22;38223;50.940;4.034;2023-06-22T15:00:30;18.60;99.90
52267;DHT22;38223;50.940;4.034;2023-06-22T15:03:04;18.70;99.90
52267;DHT22;38223;50.940;4.034;2023-06-22T15:05:44;18.60;99.90
52267;DHT22;38223;50.940;4.034;2023-06-22T15:08:19;18.70;99.90
52267;DHT22;38223;50.940;4.034;2023-06-22T15:10:51;18.80;99.90
52267;DHT22;38223;50.940;4.034;2023-06-22T15:13:30;18.90;99.90
52267;DHT22;38223;50.940;4.034;2023-06-22T15:16:10;19.10;99.90
52267;DHT22;38223;50.940;4.034;2023-06-22T15:18:43;19.30;99.90
52267;DHT22;38223;50.940;4.034;2023-06-22T15:21:22;19.30;99.90
52267;DHT22;38223;50.940;4.034;2023-06-22T15:24:06;19.30;99.90
52267;DHT22;38223;50.940;4.034;2023-06-22T15:26:34;19.30;99.90
52267;DHT22;38223;50.940;4.034;2023-06-22T15:29:05;19.30;99.90
52267;DHT22;38223;50.940;4.034;2023-06-22T15:31:44;19.30;99.90
52267;DHT22;38223;50.940;4.034;2023-06-22T15:34:23;19.30;99.90
52267;DHT22;38223;50.940;4.034;2023-06-22T15:36:51;19.30;99.90
52267;DHT22;38223;50.940;4.034;2023-06-22T15:39:25;19.20;99.90
52267;DHT22;38223;50.940;4.034;2023-06-22T15:41:58;19.20;99.90
52267;DHT22;38223;50.940;4.034;2023-06-22T15:44:33;19.40;99.90
52267;DHT22;38223;50.940;4.034;2023-06-22T15:47:02;19.60;99.90
52267;DHT22;38223;50.940;4.034;2023-06-22T15:49:29;19.70;99.90
52267;DHT22;38223;50.940;4.034;2023-06-22T15:52:03;19.70;99.90
52267;DHT22;38223;50.940;4.034;2023-06-22T15:54:37;19.70;99.90
52267;DHT22;38223;50.940;4.034;2023-06-22T15:57:10;19.90;99.90
52267;DHT22;38223;50.940;4.034;2023-06-22T15:59:41;20.10;99.90
52267;DHT22;38223;50.940;4.034;2023-06-22T16:02:13;20.30;99.90
52267;DHT22;38223;50.940;4.034;2023-06-22T16:04:48;20.20;99.90
52267;DHT22;38223;50.940;4.034;2023-06-22T16:07:23;20.20;99.90
52267;DHT22;38223;50.940;4.034;2023-06-22T16:09:59;20.30;99.90
52267;DHT22;38223;50.940;4.034;2023-06-22T16:12:30;20.40;99.90
52267;DHT22;38223;50.940;4.034;2023-06-22T16:15:11;20.50;99.90
52267;DHT22;38223;50.940;4.034;2023-06-22T16:17:44;20.50;99.90
52267;DHT22;38223;50.940;4.034;2023-06-22T16:20:20;20.40;99.90